Saturday, August 23, 2014, 7:24 AM EDT

KPHF, Williamsburg International Airport

Location: Newport News, VA, United States Lat: 37.133
Local Time: 7:24 AM EDT (11:24 GMT) Lon: -76.5
Time Zone: US/Eastern Elev: 42 ft

Show me the last for .
Show Decoded

2014-08-23 06:54 METAR KPHF 231054Z 06005KT 10SM FEW015 SCT020 OVC100 26/22 A2995 RMK AO2 SLP143
                 T02560217 =
2014-08-23 05:54 METAR KPHF 230954Z 08003KT 10SM FEW013 SCT110 24/21 A2994 RMK AO2 SLP139
                 T02440211 =
2014-08-23 04:54 METAR KPHF 230854Z 00000KT 10SM CLR 24/21 A2994 RMK AO2 SLP138 T02390211 56007 =
2014-08-23 03:54 METAR KPHF 230754Z 09004KT 10SM CLR 24/21 A2994 RMK AO2 SLP139 T02440211 =
2014-08-23 02:54 METAR KPHF 230654Z 06004KT 10SM CLR 24/21 A2995 RMK AO2 SLP141 T02440211 =
2014-08-23 02:14 METAR KPHF 230614Z 05004KT 10SM FEW015 SCT024 25/22 A2996 RMK AO2 T02500217 =
2014-08-23 01:54 METAR KPHF 230554Z 04004KT 10SM SCT015 BKN023 25/22 A2996 RMK AO2 SLP146
                 T02500217 10261 20244 56005 =
2014-08-23 01:50 METAR KPHF 230550Z 04004KT 10SM SCT015 BKN023 25/22 A2997 =
2014-08-23 01:16 METAR KPHF 230516Z 06005KT 10SM FEW016 SCT024 26/22 A2997 RMK AO2 T02560217 =
2014-08-23 00:54 METAR KPHF 230454Z 06006KT 10SM SCT015 BKN024 26/22 A2998 RMK AO2 SLP150
                 T02560222 403110244 =
2014-08-23 00:24 METAR KPHF 230424Z 06006KT 10SM FEW015 BKN021 BKN030 26/22 A2998 RMK AO2
                 T02560222 =
2014-08-22 23:54 METAR KPHF 230354Z 05005KT 10SM FEW015 SCT029 26/22 A2998 RMK AO2 SLP151
                 T02560222 =
2014-08-22 23:52 METAR KPHF 230352Z 05006KT 10SM FEW015 SCT029 26/22 A2998 RMK AO2 =
2014-08-22 23:44 METAR KPHF 230344Z 05005KT 10SM SCT015 BKN027 26/22 A2998 RMK AO2 T02560222 =
2014-08-22 22:54 METAR KPHF 230254Z 04004KT 10SM CLR 26/22 A2998 RMK AO2 SLP150 T02560222 53008 =
2014-08-22 21:54 METAR KPHF 230154Z 36003KT 8SM CLR 25/22 A2996 RMK AO2 SLP145 T02500222 =
2014-08-22 20:54 METAR KPHF 230054Z AUTO 02003KT 8SM SCT019 SCT035 BKN042 26/22 A2996 RMK AO2
                 SLP145 T02610222 TSNO =
2014-08-22 19:54 METAR KPHF 222354Z AUTO 02004KT 9SM CLR 26/22 A2995 RMK AO2 SLP141 60000
                 T02610217 10300 20261 53001 TSNO =
2014-08-22 18:54 METAR KPHF 222254Z AUTO 03003KT 10SM SCT100 28/22 A2994 RMK AO2 SLP139 T02830217
                 TSNO =
2014-08-22 17:54 METAR KPHF 222154Z AUTO 35006KT 10SM OVC095 29/21 A2994 RMK AO2 SLP139 T02890206
                 TSNO =
2014-08-22 16:54 METAR KPHF 222054Z AUTO 32008KT 10SM SCT100 29/21 A2995 =
2014-08-22 15:54 METAR KPHF 221954Z AUTO 36005KT 10SM OVC100 29/22 A2994 RMK AO2 SLP137 T02940217
                 TSNO =
2014-08-22 14:54 METAR KPHF 221854Z AUTO 31007KT 10SM OVC090 29/22 A2996 RMK AO2 RAB13E27 SLP143
                 P0000 T02940217 TSNO =
2014-08-22 13:54 METAR KPHF 221754Z 29008KT 10SM SCT100 29/21 A2997 RMK AO2 RAB12E23 SLP147 P0000
                 60000 T02940211 10311 20267 56005 =
2014-08-22 12:54 METAR KPHF 221654Z 29008KT 10SM OVC110 30/21 A2997 RMK AO2 SLP149 T03000211 =
2014-08-22 11:54 METAR KPHF 221554Z 32006KT 10SM CLR 31/21 A2997 RMK AO2 SLP148 T03060206 =
2014-08-22 10:54 METAR KPHF 221454Z 32006KT 10SM FEW055 31/21 A2998 RMK AO2 SLP152 T03060206
                 58002 =
2014-08-22 09:54 METAR KPHF 221354Z 36007KT 10SM CLR 29/21 A2999 =
2014-08-22 08:54 METAR KPHF 221254Z 31007KT 10SM SCT065 29/22 A2998 RMK AO2 SLP153 T02890217 =
2014-08-22 07:54 METAR KPHF 221154Z 29005KT 10SM OVC060 27/23 A2999 RMK AO2 SLP154 60003 70003
                 T02670228 10283 20250 53015 =

Support USWX by starting your Amazon purchase here.